createdAt,value
2023-01-09T00:00:22.472Z,46.80
2023-01-09T00:05:49.969Z,42.50
2023-01-09T00:10:57.898Z,45.90
2023-01-09T00:16:05.921Z,45.20
2023-01-09T00:21:14.708Z,44.10
2023-01-09T00:26:23.182Z,41.10
2023-01-09T00:31:31.169Z,46.20
2023-01-09T00:36:38.618Z,43.70
2023-01-09T00:41:50.938Z,44.10
2023-01-09T00:47:11.311Z,44.70
2023-01-09T00:52:21.126Z,44.20
2023-01-09T00:57:32.192Z,36.90
2023-01-09T01:02:39.701Z,44.60
2023-01-09T01:07:48.372Z,42.40
2023-01-09T01:12:57.483Z,38.90
2023-01-09T01:18:09.481Z,40.30
2023-01-09T01:23:17.043Z,39.70
2023-01-09T01:28:24.802Z,43.40
2023-01-09T01:33:32.256Z,37.70
2023-01-09T01:38:39.862Z,39.50
2023-01-09T01:43:55.640Z,38.80
2023-01-09T01:49:09.354Z,34.60
2023-01-09T01:54:23.166Z,35.60
2023-01-09T02:04:39.873Z,33.00
2023-01-09T02:09:44.623Z,37.20
2023-01-09T02:14:50.286Z,34.30
2023-01-09T02:20:30.255Z,32.10
2023-01-09T02:25:56.550Z,34.30
2023-01-09T02:31:10.719Z,32.70
2023-01-09T02:36:23.602Z,37.00
2023-01-09T02:41:37.556Z,32.20
2023-01-09T02:46:41.489Z,34.70
2023-01-09T02:51:52.629Z,26.30
2023-01-09T03:02:51.260Z,27.60
2023-01-09T03:08:04.851Z,32.40
2023-01-09T03:13:18.002Z,33.60
2023-01-09T03:18:30.724Z,33.90
2023-01-09T03:23:53.797Z,31.60
2023-01-09T03:29:03.974Z,22.90
2023-01-09T03:34:11.420Z,31.80
2023-01-09T03:39:19.083Z,36.60
2023-01-09T03:44:27.618Z,33.10
2023-01-09T03:49:36.300Z,29.60
2023-01-09T03:54:45.922Z,32.10
2023-01-09T03:59:53.898Z,28.30
2023-01-09T04:05:02.730Z,28.80
2023-01-09T04:10:13.312Z,30.30
2023-01-09T04:15:20.960Z,31.90
2023-01-09T04:20:29.581Z,31.10
2023-01-09T04:25:37.651Z,30.40
2023-01-09T04:30:45.531Z,30.90
2023-01-09T04:35:52.939Z,32.20
2023-01-09T04:41:02.115Z,33.00
2023-01-09T04:46:10.309Z,32.60
2023-01-09T04:51:17.742Z,30.40
2023-01-09T04:56:25.932Z,31.60
2023-01-09T05:01:33.354Z,32.40
2023-01-09T05:06:41.764Z,33.30
2023-01-09T05:11:53.413Z,38.50
2023-01-09T05:17:01.492Z,32.20
2023-01-09T05:22:09.393Z,32.90
2023-01-09T05:27:17.203Z,32.30
2023-01-09T05:32:24.924Z,34.80
2023-01-09T05:37:32.365Z,31.80
2023-01-09T05:42:39.837Z,36.40
2023-01-09T05:47:48.661Z,34.80
2023-01-09T05:52:57.452Z,34.50
2023-01-09T05:58:05.326Z,31.50
2023-01-09T06:03:12.738Z,32.70
2023-01-09T06:08:20.876Z,34.50
2023-01-09T06:23:10.015Z,32.90
2023-01-09T06:28:18.783Z,34.30
2023-01-09T06:33:27.766Z,34.60
2023-01-09T06:38:35.391Z,36.10
2023-01-09T06:43:43.199Z,33.70
2023-01-09T06:48:50.593Z,34.50
2023-01-09T06:54:01.297Z,31.20
2023-01-09T06:59:10.310Z,34.30
2023-01-09T07:04:22.276Z,35.40
2023-01-09T07:09:31.848Z,31.50
2023-01-09T07:14:40.065Z,30.30
2023-01-09T07:19:47.380Z,28.50
2023-01-09T07:24:56.286Z,29.30
2023-01-09T07:30:07.245Z,29.60
2023-01-09T07:35:15.255Z,26.80
2023-01-09T07:40:22.990Z,27.00
2023-01-09T07:45:31.133Z,30.30
2023-01-09T07:50:38.596Z,27.20
2023-01-09T08:04:17.556Z,27.00
2023-01-09T08:09:26.496Z,25.00
2023-01-09T08:14:36.428Z,25.50
2023-01-09T08:19:44.705Z,25.00
2023-01-09T08:24:52.120Z,24.10
2023-01-09T08:30:00.165Z,25.00
2023-01-09T08:35:09.178Z,24.90
2023-01-09T08:40:18.991Z,23.80
2023-01-09T08:45:44.689Z,22.80
2023-01-09T08:50:55.317Z,23.50
2023-01-09T08:56:02.966Z,19.30
2023-01-09T09:01:11.822Z,17.50
2023-01-09T09:06:21.229Z,21.20
2023-01-09T09:11:30.622Z,35.70
2023-01-09T09:16:38.214Z,24.00
2023-01-09T09:21:45.856Z,23.40
2023-01-09T09:26:53.435Z,23.10
2023-01-09T09:32:02.083Z,20.50
2023-01-09T09:37:10.373Z,22.70
2023-01-09T09:42:58.044Z,19.90
2023-01-09T09:48:20.631Z,20.90
2023-01-09T09:53:33.362Z,18.80
2023-01-09T09:58:43.469Z,21.40
2023-01-09T10:03:53.624Z,21.20
2023-01-09T10:09:10.160Z,23.20
2023-01-09T10:14:24.374Z,21.40
2023-01-09T10:19:47.926Z,20.40
2023-01-09T10:25:14.069Z,19.70
2023-01-09T10:30:30.365Z,19.60
2023-01-09T10:36:12.956Z,18.80
2023-01-09T10:41:26.353Z,15.80
2023-01-09T10:46:40.741Z,16.50
2023-01-09T10:51:50.789Z,14.70
2023-01-09T10:57:02.839Z,13.90
2023-01-09T11:02:25.961Z,14.00
2023-01-09T11:07:38.209Z,14.60
2023-01-09T11:12:45.947Z,12.40
2023-01-09T11:17:55.943Z,13.00
2023-01-09T11:23:03.189Z,12.50
2023-01-09T11:28:13.492Z,10.20
2023-01-09T11:33:25.798Z,11.00
2023-01-09T11:38:46.633Z,12.40
2023-01-09T11:44:00.717Z,12.20
2023-01-09T11:49:22.905Z,13.00
2023-01-09T11:54:33.371Z,12.60
2023-01-09T12:04:41.274Z,13.20
2023-01-09T12:09:56.429Z,11.10
2023-01-09T12:15:21.127Z,12.60
2023-01-09T12:20:44.651Z,16.10
2023-01-09T12:28:49.425Z,15.90
2023-01-09T12:34:05.795Z,17.40
2023-01-09T12:39:26.066Z,20.00
2023-01-09T12:45:00.057Z,16.20
2023-01-09T12:50:21.802Z,19.30
2023-01-09T12:55:34.657Z,19.10
2023-01-09T13:00:45.459Z,18.90
2023-01-09T13:05:54.679Z,17.50
2023-01-09T13:11:19.487Z,15.00
2023-01-09T13:16:32.276Z,13.90
2023-01-09T13:21:41.640Z,17.80
2023-01-09T13:26:52.326Z,17.50
2023-01-09T13:32:30.568Z,18.10
2023-01-09T13:37:40.469Z,18.50
2023-01-09T13:42:56.468Z,15.50
2023-01-09T13:48:40.920Z,14.40
2023-01-09T13:53:49.624Z,14.10
2023-01-09T13:59:04.263Z,18.50
2023-01-09T14:04:39.313Z,17.70
2023-01-09T14:09:50.931Z,21.70
2023-01-09T14:15:02.425Z,17.40
2023-01-09T14:20:25.117Z,19.50
2023-01-09T14:25:33.816Z,19.90
2023-01-09T14:31:02.114Z,23.20
2023-01-09T14:36:15.841Z,22.80
2023-01-09T14:41:45.929Z,20.00
2023-01-09T14:46:55.741Z,22.90
2023-01-09T14:52:09.636Z,20.60
2023-01-09T14:57:34.258Z,28.50
2023-01-09T15:02:42.786Z,26.70
2023-01-09T15:07:55.835Z,26.70
2023-01-09T15:13:06.656Z,25.90
2023-01-09T15:18:23.720Z,24.50
2023-01-09T15:23:32.636Z,25.70
2023-01-09T15:28:45.100Z,24.60
2023-01-09T15:33:54.188Z,23.80
2023-01-09T15:39:02.311Z,21.00
2023-01-09T15:44:17.929Z,17.20
2023-01-09T15:49:25.921Z,9.80
2023-01-09T15:54:35.558Z,11.70
2023-01-09T15:59:42.770Z,10.10
2023-01-09T16:04:51.656Z,10.90
2023-01-09T16:09:59.424Z,9.60
2023-01-09T16:15:08.226Z,9.70
2023-01-09T16:20:28.092Z,9.20
2023-01-09T16:25:37.140Z,8.00
2023-01-09T16:30:55.112Z,8.60
2023-01-09T16:36:03.626Z,8.00
2023-01-09T16:41:33.323Z,9.00
2023-01-09T16:46:43.775Z,10.10
2023-01-09T16:51:51.628Z,7.80
2023-01-09T16:56:59.469Z,8.90
2023-01-09T17:02:12.189Z,7.70
2023-01-09T17:07:20.733Z,7.90
2023-01-09T17:12:28.534Z,8.20
2023-01-09T17:17:36.142Z,9.00
2023-01-09T17:22:43.378Z,10.10
2023-01-09T17:28:08.002Z,8.50
2023-01-09T17:33:19.128Z,7.20
2023-01-09T17:38:26.645Z,8.00
2023-01-09T17:43:33.626Z,9.10
2023-01-09T17:48:40.629Z,10.00
2023-01-09T18:02:59.909Z,10.60
2023-01-09T18:08:10.361Z,8.60
2023-01-09T18:13:20.244Z,10.40
2023-01-09T18:18:28.010Z,11.00
2023-01-09T18:23:36.537Z,11.60
2023-01-09T18:28:44.599Z,11.40
2023-01-09T18:33:57.146Z,11.90
2023-01-09T18:39:09.811Z,12.90
2023-01-09T18:44:22.897Z,11.10
2023-01-09T18:49:32.255Z,14.80
2023-01-09T18:54:42.885Z,13.10
2023-01-09T18:59:50.244Z,14.70
2023-01-09T19:04:57.851Z,15.20
2023-01-09T19:10:06.309Z,15.90
2023-01-09T19:15:15.934Z,14.10
2023-01-09T19:20:23.950Z,15.50
2023-01-09T19:25:34.719Z,13.00
2023-01-09T19:40:33.064Z,15.00
2023-01-09T19:45:39.611Z,15.50
2023-01-09T19:50:44.417Z,17.50
2023-01-09T19:55:49.227Z,16.90
2023-01-09T20:00:55.770Z,18.40
2023-01-09T20:06:05.158Z,16.60
2023-01-09T20:11:09.670Z,17.60
2023-01-09T20:16:17.301Z,16.40
2023-01-09T20:21:25.376Z,19.20
2023-01-09T20:26:32.669Z,18.50
2023-01-09T20:31:37.524Z,20.20
2023-01-09T20:36:42.153Z,19.50
2023-01-09T20:41:46.472Z,18.90
2023-01-09T20:46:52.996Z,16.30
2023-01-09T20:51:58.257Z,17.40
2023-01-09T20:57:03.020Z,17.60
2023-01-09T21:02:12.877Z,20.30
2023-01-09T21:07:17.216Z,19.40
2023-01-09T21:12:35.199Z,17.60
2023-01-09T21:17:40.507Z,21.10
2023-01-09T21:22:45.358Z,20.90
2023-01-09T21:27:50.559Z,19.00
2023-01-09T21:32:56.251Z,20.60
2023-01-09T21:38:02.375Z,18.70
2023-01-09T21:43:26.321Z,21.70
2023-01-09T21:48:30.726Z,21.80
2023-01-09T21:53:34.855Z,22.00
2023-01-09T21:58:39.160Z,22.80
2023-01-09T22:03:43.369Z,23.40
2023-01-09T22:08:48.039Z,19.00
2023-01-09T22:13:53.868Z,17.70
2023-01-09T22:18:59.376Z,20.20
2023-01-09T22:24:04.680Z,18.30
2023-01-09T22:29:09.903Z,32.70
2023-01-09T22:34:17.709Z,20.90
2023-01-09T22:39:25.511Z,22.90
2023-01-09T22:44:30.672Z,21.60
2023-01-09T22:49:52.021Z,23.30
2023-01-09T22:54:58.319Z,23.70
2023-01-09T23:00:08.285Z,24.40
2023-01-09T23:05:12.345Z,25.00
2023-01-09T23:10:17.148Z,22.30
2023-01-09T23:15:22.273Z,25.60
2023-01-09T23:20:27.537Z,23.70
2023-01-09T23:25:31.765Z,22.20
2023-01-09T23:30:36.617Z,17.10
2023-01-09T23:35:41.102Z,23.40
2023-01-09T23:40:46.295Z,26.60
2023-01-09T23:45:52.527Z,24.10
2023-01-09T23:50:58.444Z,24.20
2023-01-09T23:56:02.874Z,28.00
